sensor_id;sensor_type;location;lat;lon;timestamp;pressure;altitude;pressure_sealevel;temperature;humidity
35248;BME280;21380;52.194;20.520;2023-08-24T00:00:57;100698.72;;;24.27;71.05
35248;BME280;21380;52.194;20.520;2023-08-24T00:03:34;100703.03;;;24.34;71.61
35248;BME280;21380;52.194;20.520;2023-08-24T00:06:00;100704.84;;;24.29;71.54
35248;BME280;21380;52.194;20.520;2023-08-24T00:08:26;100706.59;;;24.30;71.49
35248;BME280;21380;52.194;20.520;2023-08-24T00:10:52;100721.47;;;24.34;71.40
35248;BME280;21380;52.194;20.520;2023-08-24T00:13:18;100711.84;;;24.32;71.56
35248;BME280;21380;52.194;20.520;2023-08-24T00:15:45;100697.84;;;24.25;71.28
35248;BME280;21380;52.194;20.520;2023-08-24T00:18:11;100717.13;;;24.32;71.09
35248;BME280;21380;52.194;20.520;2023-08-24T00:20:37;100709.22;;;24.28;71.31
35248;BME280;21380;52.194;20.520;2023-08-24T00:23:03;100712.72;;;24.31;71.36
35248;BME280;21380;52.194;20.520;2023-08-24T00:25:30;100710.06;;;24.32;71.36
35248;BME280;21380;52.194;20.520;2023-08-24T00:27:55;100707.47;;;24.29;71.40
35248;BME280;21380;52.194;20.520;2023-08-24T00:30:22;100705.75;;;24.26;71.28
35248;BME280;21380;52.194;20.520;2023-08-24T00:32:48;100699.63;;;24.24;71.56
35248;BME280;21380;52.194;20.520;2023-08-24T00:35:14;100709.22;;;24.30;71.23
35248;BME280;21380;52.194;20.520;2023-08-24T00:37:40;100707.47;;;24.31;71.38
35248;BME280;21380;52.194;20.520;2023-08-24T00:40:07;100703.13;;;24.25;71.27
35248;BME280;21380;52.194;20.520;2023-08-24T00:42:37;100701.31;;;24.28;71.34
35248;BME280;21380;52.194;20.520;2023-08-24T00:45:05;100712.75;;;24.29;71.29
35248;BME280;21380;52.194;20.520;2023-08-24T00:47:31;100715.38;;;24.29;71.31
35248;BME280;21380;52.194;20.520;2023-08-24T00:49:58;100701.38;;;24.22;71.23
35248;BME280;21380;52.194;20.520;2023-08-24T00:52:25;100706.66;;;24.24;71.09
35248;BME280;21380;52.194;20.520;2023-08-24T00:54:53;100713.63;;;24.28;71.29
35248;BME280;21380;52.194;20.520;2023-08-24T00:57:18;100714.50;;;24.28;71.23
35248;BME280;21380;52.194;20.520;2023-08-24T00:59:45;100709.25;;;24.27;71.35
35248;BME280;21380;52.194;20.520;2023-08-24T01:02:12;100706.63;;;24.27;71.30
35248;BME280;21380;52.194;20.520;2023-08-24T01:04:41;100710.13;;;24.26;71.19
35248;BME280;21380;52.194;20.520;2023-08-24T01:07:08;100695.28;;;24.19;71.26
35248;BME280;21380;52.194;20.520;2023-08-24T01:09:35;100691.75;;;24.20;71.19
35248;BME280;21380;52.194;20.520;2023-08-24T01:12:28;100699.59;;;24.26;71.33
35248;BME280;21380;52.194;20.520;2023-08-24T01:15:15;100698.75;;;24.24;71.30
35248;BME280;21380;52.194;20.520;2023-08-24T01:17:43;100690.91;;;24.16;71.16
35248;BME280;21380;52.194;20.520;2023-08-24T01:20:11;100698.75;;;24.24;71.25
35248;BME280;21380;52.194;20.520;2023-08-24T01:23:02;100700.47;;;24.25;71.10
35248;BME280;21380;52.194;20.520;2023-08-24T01:28:21;100684.72;;;24.19;71.02
35248;BME280;21380;52.194;20.520;2023-08-24T01:30:47;100694.38;;;24.23;71.18
35248;BME280;21380;52.194;20.520;2023-08-24T01:33:14;100685.66;;;24.18;71.17
35248;BME280;21380;52.194;20.520;2023-08-24T01:35:41;100693.47;;;24.22;71.21
35248;BME280;21380;52.194;20.520;2023-08-24T01:38:07;100692.63;;;24.22;71.24
35248;BME280;21380;52.194;20.520;2023-08-24T01:43:18;100693.50;;;24.21;71.16
35248;BME280;21380;52.194;20.520;2023-08-24T01:45:47;100677.75;;;24.15;71.04
35248;BME280;21380;52.194;20.520;2023-08-24T01:48:14;100686.50;;;24.20;71.13
35248;BME280;21380;52.194;20.520;2023-08-24T01:50:41;100690.03;;;24.17;71.23
35248;BME280;21380;52.194;20.520;2023-08-24T01:53:08;100674.28;;;24.12;71.06
35248;BME280;21380;52.194;20.520;2023-08-24T01:55:34;100690.00;;;24.19;71.13
35248;BME280;21380;52.194;20.520;2023-08-24T01:58:00;100684.78;;;24.16;71.17
35248;BME280;21380;52.194;20.520;2023-08-24T02:00:26;100679.56;;;24.12;71.16
35248;BME280;21380;52.194;20.520;2023-08-24T02:02:52;100683.06;;;24.13;71.13
35248;BME280;21380;52.194;20.520;2023-08-24T02:05:19;100685.69;;;24.13;71.11
35248;BME280;21380;52.194;20.520;2023-08-24T02:07:44;100691.78;;;24.18;71.00
35248;BME280;21380;52.194;20.520;2023-08-24T02:10:10;100680.44;;;24.13;71.31
35248;BME280;21380;52.194;20.520;2023-08-24T02:12:36;100691.81;;;24.17;71.21
35248;BME280;21380;52.194;20.520;2023-08-24T02:15:03;100689.16;;;24.17;71.00
35248;BME280;21380;52.194;20.520;2023-08-24T02:17:28;100673.38;;;24.15;71.30
35248;BME280;21380;52.194;20.520;2023-08-24T02:19:55;100690.06;;;24.16;71.12
35248;BME280;21380;52.194;20.520;2023-08-24T02:22:21;100679.56;;;24.11;71.03
35248;BME280;21380;52.194;20.520;2023-08-24T02:24:47;100690.06;;;24.16;71.00
35248;BME280;21380;52.194;20.520;2023-08-24T02:27:13;100683.91;;;24.13;71.14
35248;BME280;21380;52.194;20.520;2023-08-24T02:29:39;100684.78;;;24.16;71.13
35248;BME280;21380;52.194;20.520;2023-08-24T02:32:05;100688.31;;;24.15;71.18
35248;BME280;21380;52.194;20.520;2023-08-24T02:34:31;100683.03;;;24.15;71.00
35248;BME280;21380;52.194;20.520;2023-08-24T02:36:57;100669.06;;;24.08;71.10
35248;BME280;21380;52.194;20.520;2023-08-24T02:39:23;100688.31;;;24.15;71.25
35248;BME280;21380;52.194;20.520;2023-08-24T02:41:49;100681.28;;;24.13;71.25
35248;BME280;21380;52.194;20.520;2023-08-24T02:44:15;100676.00;;;24.13;71.18
35248;BME280;21380;52.194;20.520;2023-08-24T02:46:44;100650.72;;;23.99;71.20
35248;BME280;21380;52.194;20.520;2023-08-24T02:49:10;100676.97;;;24.08;71.09
35248;BME280;21380;52.194;20.520;2023-08-24T02:51:36;100674.38;;;24.03;70.95
35248;BME280;21380;52.194;20.520;2023-08-24T02:54:01;100677.81;;;24.11;71.04
35248;BME280;21380;52.194;20.520;2023-08-24T02:56:27;100671.69;;;24.08;71.16
35248;BME280;21380;52.194;20.520;2023-08-24T02:58:53;100685.72;;;24.10;71.09
35248;BME280;21380;52.194;20.520;2023-08-24T03:01:19;100692.72;;;24.11;71.04
35248;BME280;21380;52.194;20.520;2023-08-24T03:03:45;100665.69;;;23.96;71.04
35248;BME280;21380;52.194;20.520;2023-08-24T03:06:11;100680.47;;;24.08;71.08
35248;BME280;21380;52.194;20.520;2023-08-24T03:11:49;100676.94;;;24.09;71.14
35248;BME280;21380;52.194;20.520;2023-08-24T03:14:15;100669.03;;;24.09;71.04
35248;BME280;21380;52.194;20.520;2023-08-24T03:16:41;100671.69;;;24.08;71.10
35248;BME280;21380;52.194;20.520;2023-08-24T03:19:07;100649.00;;;23.98;71.24
35248;BME280;21380;52.194;20.520;2023-08-24T03:21:32;100676.94;;;24.09;71.22
35248;BME280;21380;52.194;20.520;2023-08-24T03:23:58;100670.81;;;24.07;71.07
35248;BME280;21380;52.194;20.520;2023-08-24T03:26:24;100667.28;;;24.08;70.96
35248;BME280;21380;52.194;20.520;2023-08-24T03:28:50;100656.84;;;24.01;70.96
35248;BME280;21380;52.194;20.520;2023-08-24T03:31:16;100656.00;;;24.00;71.15
35248;BME280;21380;52.194;20.520;2023-08-24T03:33:42;100673.44;;;24.07;71.22
35248;BME280;21380;52.194;20.520;2023-08-24T03:36:08;100667.34;;;24.05;71.06
35248;BME280;21380;52.194;20.520;2023-08-24T03:38:34;100677.00;;;24.05;71.09
35248;BME280;21380;52.194;20.520;2023-08-24T03:41:03;100670.88;;;24.04;70.94
35248;BME280;21380;52.194;20.520;2023-08-24T03:43:33;100674.38;;;24.06;71.15
35248;BME280;21380;52.194;20.520;2023-08-24T03:46:00;100657.72;;;24.00;71.06
35248;BME280;21380;52.194;20.520;2023-08-24T03:48:26;100665.56;;;24.06;70.84
35248;BME280;21380;52.194;20.520;2023-08-24T03:50:56;100676.13;;;24.04;70.98
35248;BME280;21380;52.194;20.520;2023-08-24T03:53:23;100661.25;;;23.99;71.15
35248;BME280;21380;52.194;20.520;2023-08-24T03:55:49;100681.38;;;24.06;71.17
35248;BME280;21380;52.194;20.520;2023-08-24T03:58:15;100670.84;;;24.06;71.32
35248;BME280;21380;52.194;20.520;2023-08-24T04:00:41;100664.81;;;23.98;71.14
35248;BME280;21380;52.194;20.520;2023-08-24T04:03:08;100656.06;;;23.94;71.00
35248;BME280;21380;52.194;20.520;2023-08-24T04:05:34;100663.91;;;23.97;71.05
35248;BME280;21380;52.194;20.520;2023-08-24T04:08:00;100683.16;;;24.05;71.08
35248;BME280;21380;52.194;20.520;2023-08-24T04:10:30;100684.91;;;24.05;70.98
35248;BME280;21380;52.194;20.520;2023-08-24T04:12:56;100678.78;;;24.01;71.30
35248;BME280;21380;52.194;20.520;2023-08-24T04:15:21;100685.78;;;24.05;71.20
35248;BME280;21380;52.194;20.520;2023-08-24T04:17:48;100679.69;;;24.00;71.36
35248;BME280;21380;52.194;20.520;2023-08-24T04:20:14;100678.78;;;24.01;71.12
35248;BME280;21380;52.194;20.520;2023-08-24T04:22:40;100669.19;;;23.97;71.19
35248;BME280;21380;52.194;20.520;2023-08-24T04:25:06;100684.03;;;24.04;71.04
35248;BME280;21380;52.194;20.520;2023-08-24T04:27:32;100659.59;;;23.91;70.93
35248;BME280;21380;52.194;20.520;2023-08-24T04:29:58;100679.66;;;24.03;71.13
35248;BME280;21380;52.194;20.520;2023-08-24T04:32:24;100656.06;;;23.94;71.07
35248;BME280;21380;52.194;20.520;2023-08-24T04:34:50;100678.78;;;24.03;71.33
35248;BME280;21380;52.194;20.520;2023-08-24T04:37:16;100658.69;;;23.94;70.88
35248;BME280;21380;52.194;20.520;2023-08-24T04:39:42;100673.50;;;24.01;71.10
35248;BME280;21380;52.194;20.520;2023-08-24T04:42:08;100675.28;;;24.01;71.20
35248;BME280;21380;52.194;20.520;2023-08-24T04:44:34;100688.44;;;24.05;71.10
35248;BME280;21380;52.194;20.520;2023-08-24T04:47:00;100692.81;;;24.05;71.19
35248;BME280;21380;52.194;20.520;2023-08-24T04:49:25;100670.94;;;23.98;70.92
35248;BME280;21380;52.194;20.520;2023-08-24T04:51:51;100678.78;;;24.03;71.07
35248;BME280;21380;52.194;20.520;2023-08-24T04:54:17;100690.19;;;24.06;71.14
35248;BME280;21380;52.194;20.520;2023-08-24T04:56:43;100686.63;;;24.07;71.02
35248;BME280;21380;52.194;20.520;2023-08-24T04:59:09;100692.78;;;24.08;70.94
35248;BME280;21380;52.194;20.520;2023-08-24T05:01:36;100688.38;;;24.08;71.00
35248;BME280;21380;52.194;20.520;2023-08-24T05:04:02;100684.91;;;24.06;70.97
35248;BME280;21380;52.194;20.520;2023-08-24T05:06:28;100679.66;;;24.03;70.98
35248;BME280;21380;52.194;20.520;2023-08-24T05:08:54;100690.13;;;24.09;70.94
35248;BME280;21380;52.194;20.520;2023-08-24T05:11:22;100687.53;;;24.06;70.92
35248;BME280;21380;52.194;20.520;2023-08-24T05:13:50;100687.50;;;24.09;71.06
35248;BME280;21380;52.194;20.520;2023-08-24T05:16:16;100694.53;;;24.09;70.71
35248;BME280;21380;52.194;20.520;2023-08-24T05:18:41;100676.19;;;23.98;71.16
35248;BME280;21380;52.194;20.520;2023-08-24T05:21:07;100700.66;;;24.12;71.04
35248;BME280;21380;52.194;20.520;2023-08-24T05:23:34;100696.28;;;24.08;71.01
35248;BME280;21380;52.194;20.520;2023-08-24T05:26:01;100681.44;;;24.03;71.22
35248;BME280;21380;52.194;20.520;2023-08-24T05:28:28;100701.50;;;24.13;71.11
35248;BME280;21380;52.194;20.520;2023-08-24T05:30:55;100692.75;;;24.12;70.86
35248;BME280;21380;52.194;20.520;2023-08-24T05:33:22;100703.25;;;24.14;70.86
35248;BME280;21380;52.194;20.520;2023-08-24T05:35:49;100700.66;;;24.09;70.93
35248;BME280;21380;52.194;20.520;2023-08-24T05:38:16;100703.25;;;24.14;71.04
35248;BME280;21380;52.194;20.520;2023-08-24T05:40:42;100692.75;;;24.09;70.88
35248;BME280;21380;52.194;20.520;2023-08-24T05:43:09;100710.28;;;24.15;71.05
35248;BME280;21380;52.194;20.520;2023-08-24T05:45:36;100688.34;;;24.10;71.05
35248;BME280;21380;52.194;20.520;2023-08-24T05:48:02;100698.00;;;24.11;70.87
35248;BME280;21380;52.194;20.520;2023-08-24T05:50:28;100687.50;;;24.09;70.91
35248;BME280;21380;52.194;20.520;2023-08-24T05:52:54;100700.56;;;24.17;70.79
35248;BME280;21380;52.194;20.520;2023-08-24T05:55:20;100695.31;;;24.16;70.91
35248;BME280;21380;52.194;20.520;2023-08-24T05:57:46;100705.84;;;24.17;70.83
35248;BME280;21380;52.194;20.520;2023-08-24T06:00:12;100703.19;;;24.19;70.98
35248;BME280;21380;52.194;20.520;2023-08-24T06:02:39;100699.69;;;24.18;70.82
35248;BME280;21380;52.194;20.520;2023-08-24T06:05:06;100688.34;;;24.11;70.94
35248;BME280;21380;52.194;20.520;2023-08-24T06:07:33;100703.19;;;24.19;70.96
35248;BME280;21380;52.194;20.520;2023-08-24T06:09:59;100696.16;;;24.19;70.91
35248;BME280;21380;52.194;20.520;2023-08-24T06:12:25;100684.81;;;24.11;70.93
35248;BME280;21380;52.194;20.520;2023-08-24T06:14:51;100693.56;;;24.18;70.89
35248;BME280;21380;52.194;20.520;2023-08-24T06:17:16;100696.16;;;24.19;70.96
35248;BME280;21380;52.194;20.520;2023-08-24T06:19:42;100693.53;;;24.19;71.02
35248;BME280;21380;52.194;20.520;2023-08-24T06:22:08;100688.28;;;24.16;70.73
35248;BME280;21380;52.194;20.520;2023-08-24T06:24:35;100691.75;;;24.20;70.81
35248;BME280;21380;52.194;20.520;2023-08-24T06:27:01;100685.69;;;24.13;70.86
35248;BME280;21380;52.194;20.520;2023-08-24T06:29:29;100687.38;;;24.20;70.74
35248;BME280;21380;52.194;20.520;2023-08-24T06:31:55;100680.44;;;24.13;70.97
35248;BME280;21380;52.194;20.520;2023-08-24T06:34:21;100683.91;;;24.17;70.73
35248;BME280;21380;52.194;20.520;2023-08-24T06:36:47;100690.91;;;24.19;70.73
35248;BME280;21380;52.194;20.520;2023-08-24T06:39:13;100690.00;;;24.19;70.48
35248;BME280;21380;52.194;20.520;2023-08-24T06:41:39;100687.38;;;24.20;70.71
35248;BME280;21380;52.194;20.520;2023-08-24T06:44:05;100667.31;;;24.07;70.73
35248;BME280;21380;52.194;20.520;2023-08-24T06:46:31;100687.38;;;24.20;70.64
35248;BME280;21380;52.194;20.520;2023-08-24T06:48:57;100695.28;;;24.20;70.63
35248;BME280;21380;52.194;20.520;2023-08-24T06:51:24;100689.13;;;24.21;70.66
35248;BME280;21380;52.194;20.520;2023-08-24T06:53:50;100677.75;;;24.18;70.60
35248;BME280;21380;52.194;20.520;2023-08-24T06:56:16;100694.38;;;24.20;70.60
35248;BME280;21380;52.194;20.520;2023-08-24T06:58:44;100703.16;;;24.22;70.48
35248;BME280;21380;52.194;20.520;2023-08-24T07:01:11;100704.06;;;24.21;70.70
35248;BME280;21380;52.194;20.520;2023-08-24T07:03:37;100698.81;;;24.19;70.45
35248;BME280;21380;52.194;20.520;2023-08-24T07:06:05;100708.44;;;24.22;70.49
35248;BME280;21380;52.194;20.520;2023-08-24T07:08:32;100691.81;;;24.13;70.78
35248;BME280;21380;52.194;20.520;2023-08-24T07:10:58;100703.16;;;24.22;70.33
35248;BME280;21380;52.194;20.520;2023-08-24T07:13:24;100714.59;;;24.21;70.35
35248;BME280;21380;52.194;20.520;2023-08-24T07:15:52;100713.72;;;24.20;70.49
35248;BME280;21380;52.194;20.520;2023-08-24T07:18:18;100712.84;;;24.20;70.38
35248;BME280;21380;52.194;20.520;2023-08-24T07:20:43;100714.56;;;24.22;70.42
35248;BME280;21380;52.194;20.520;2023-08-24T07:23:09;100723.38;;;24.23;70.30
35248;BME280;21380;52.194;20.520;2023-08-24T07:25:35;100688.38;;;24.08;70.42
35248;BME280;21380;52.194;20.520;2023-08-24T07:28:01;100717.22;;;24.24;70.42
35248;BME280;21380;52.194;20.520;2023-08-24T07:30:29;100707.56;;;24.23;70.42
35248;BME280;21380;52.194;20.520;2023-08-24T07:32:55;100705.81;;;24.22;70.42
35248;BME280;21380;52.194;20.520;2023-08-24T07:35:21;100704.03;;;24.24;70.56
35248;BME280;21380;52.194;20.520;2023-08-24T07:37:47;100708.47;;;24.20;70.38
35248;BME280;21380;52.194;20.520;2023-08-24T07:40:14;100708.38;;;24.25;70.46
35248;BME280;21380;52.194;20.520;2023-08-24T07:42:44;100701.41;;;24.21;70.42
35248;BME280;21380;52.194;20.520;2023-08-24T07:45:11;100705.81;;;24.22;70.18
35248;BME280;21380;52.194;20.520;2023-08-24T07:47:37;100697.88;;;24.23;70.49
35248;BME280;21380;52.194;20.520;2023-08-24T07:50:03;100697.88;;;24.23;70.59
35248;BME280;21380;52.194;20.520;2023-08-24T07:52:30;100702.22;;;24.26;70.46
35248;BME280;21380;52.194;20.520;2023-08-24T07:54:55;100696.13;;;24.22;70.32
35248;BME280;21380;52.194;20.520;2023-08-24T07:57:25;100698.78;;;24.21;70.43
35248;BME280;21380;52.194;20.520;2023-08-24T07:59:52;100705.72;;;24.28;70.31
35248;BME280;21380;52.194;20.520;2023-08-24T08:02:18;100683.03;;;24.15;70.40
35248;BME280;21380;52.194;20.520;2023-08-24T08:04:44;100704.00;;;24.25;70.23
35248;BME280;21380;52.194;20.520;2023-08-24T08:07:10;100702.22;;;24.27;70.22
35248;BME280;21380;52.194;20.520;2023-08-24T08:09:37;100701.34;;;24.27;70.20
35248;BME280;21380;52.194;20.520;2023-08-24T08:12:03;100693.50;;;24.24;70.21
35248;BME280;21380;52.194;20.520;2023-08-24T08:14:32;100699.63;;;24.24;70.45
35248;BME280;21380;52.194;20.520;2023-08-24T08:16:58;100701.38;;;24.25;70.24
35248;BME280;21380;52.194;20.520;2023-08-24T08:19:23;100700.47;;;24.28;70.35
35248;BME280;21380;52.194;20.520;2023-08-24T08:21:53;100692.59;;;24.23;70.35
35248;BME280;21380;52.194;20.520;2023-08-24T08:24:19;100692.59;;;24.23;70.29
35248;BME280;21380;52.194;20.520;2023-08-24T08:26:46;100688.22;;;24.21;70.42
35248;BME280;21380;52.194;20.520;2023-08-24T08:29:11;100686.41;;;24.26;70.46
35248;BME280;21380;52.194;20.520;2023-08-24T08:31:37;100689.03;;;24.29;70.29
35248;BME280;21380;52.194;20.520;2023-08-24T08:34:03;100696.03;;;24.28;70.07
35248;BME280;21380;52.194;20.520;2023-08-24T08:36:32;100685.59;;;24.24;70.21
35248;BME280;21380;52.194;20.520;2023-08-24T08:38:58;100696.03;;;24.28;70.46
35248;BME280;21380;52.194;20.520;2023-08-24T08:41:27;100710.09;;;24.31;70.26
35248;BME280;21380;52.194;20.520;2023-08-24T08:43:56;100683.88;;;24.18;70.30
35248;BME280;21380;52.194;20.520;2023-08-24T08:46:22;100696.97;;;24.26;70.45
35248;BME280;21380;52.194;20.520;2023-08-24T08:48:49;100701.38;;;24.25;70.21
35248;BME280;21380;52.194;20.520;2023-08-24T08:51:17;100706.56;;;24.32;70.26
35248;BME280;21380;52.194;20.520;2023-08-24T08:53:44;100697.78;;;24.31;70.31
35248;BME280;21380;52.194;20.520;2023-08-24T08:56:10;100695.13;;;24.33;70.18
35248;BME280;21380;52.194;20.520;2023-08-24T08:58:36;100686.38;;;24.27;70.31
35248;BME280;21380;52.194;20.520;2023-08-24T09:01:03;100702.16;;;24.32;70.16
35248;BME280;21380;52.194;20.520;2023-08-24T09:03:31;100695.13;;;24.31;69.92
35248;BME280;21380;52.194;20.520;2023-08-24T09:05:58;100684.63;;;24.29;70.29
35248;BME280;21380;52.194;20.520;2023-08-24T09:08:25;100685.50;;;24.28;70.01
35248;BME280;21380;52.194;20.520;2023-08-24T09:10:51;100680.22;;;24.32;70.01
35248;BME280;21380;52.194;20.520;2023-08-24T09:13:17;100694.22;;;24.34;69.95
35248;BME280;21380;52.194;20.520;2023-08-24T09:15:43;100692.50;;;24.33;70.07
35248;BME280;21380;52.194;20.520;2023-08-24T09:18:09;100690.72;;;24.33;70.06
35248;BME280;21380;52.194;20.520;2023-08-24T09:20:35;100688.97;;;24.32;70.04
35248;BME280;21380;52.194;20.520;2023-08-24T09:23:01;100667.06;;;24.28;70.12
35248;BME280;21380;52.194;20.520;2023-08-24T09:25:28;100669.69;;;24.30;69.85
35248;BME280;21380;52.194;20.520;2023-08-24T09:28:01;100666.19;;;24.28;69.94
35248;BME280;21380;52.194;20.520;2023-08-24T09:30:31;100675.78;;;24.32;69.94
35248;BME280;21380;52.194;20.520;2023-08-24T09:33:04;100678.41;;;24.34;70.09
35248;BME280;21380;52.194;20.520;2023-08-24T09:35:36;100681.97;;;24.33;69.89
35248;BME280;21380;52.194;20.520;2023-08-24T09:38:22;100689.84;;;24.34;70.03
35248;BME280;21380;52.194;20.520;2023-08-24T09:40:52;100690.69;;;24.35;70.01
35248;BME280;21380;52.194;20.520;2023-08-24T09:43:19;100682.84;;;24.32;70.10
35248;BME280;21380;52.194;20.520;2023-08-24T09:45:53;100665.31;;;24.26;69.96
35248;BME280;21380;52.194;20.520;2023-08-24T09:48:20;100685.50;;;24.30;69.79
35248;BME280;21380;52.194;20.520;2023-08-24T09:50:47;100678.41;;;24.34;70.01
35248;BME280;21380;52.194;20.520;2023-08-24T09:53:19;100685.44;;;24.35;69.96
35248;BME280;21380;52.194;20.520;2023-08-24T09:55:59;100681.13;;;24.29;70.03
35248;BME280;21380;52.194;20.520;2023-08-24T09:58:26;100685.41;;;24.36;70.00
35248;BME280;21380;52.194;20.520;2023-08-24T10:00:54;100676.63;;;24.36;69.94
35248;BME280;21380;52.194;20.520;2023-08-24T10:03:25;100671.41;;;24.33;69.89
35248;BME280;21380;52.194;20.520;2023-08-24T10:05:53;100674.00;;;24.36;69.45
35248;BME280;21380;52.194;20.520;2023-08-24T10:08:24;100674.84;;;24.36;69.61
35248;BME280;21380;52.194;20.520;2023-08-24T10:10:53;100668.78;;;24.31;69.26
35248;BME280;21380;52.194;20.520;2023-08-24T10:13:27;100680.13;;;24.38;69.16
35248;BME280;21380;52.194;20.520;2023-08-24T10:15:55;100662.66;;;24.27;69.18
35248;BME280;21380;52.194;20.520;2023-08-24T10:18:22;100671.41;;;24.33;69.16
35248;BME280;21380;52.194;20.520;2023-08-24T10:20:50;100683.63;;;24.38;69.40
35248;BME280;21380;52.194;20.520;2023-08-24T10:23:16;100682.75;;;24.39;69.14
35248;BME280;21380;52.194;20.520;2023-08-24T10:25:44;100679.25;;;24.39;69.08
35248;BME280;21380;52.194;20.520;2023-08-24T10:28:11;100675.69;;;24.40;69.24
35248;BME280;21380;52.194;20.520;2023-08-24T10:30:39;100664.28;;;24.39;69.09
35248;BME280;21380;52.194;20.520;2023-08-24T10:33:06;100665.16;;;24.40;69.35
35248;BME280;21380;52.194;20.520;2023-08-24T10:35:35;100657.34;;;24.32;69.30
35248;BME280;21380;52.194;20.520;2023-08-24T10:38:01;100662.56;;;24.37;69.31
35248;BME280;21380;52.194;20.520;2023-08-24T10:40:32;100646.00;;;24.27;69.38
35248;BME280;21380;52.194;20.520;2023-08-24T10:43:02;100666.03;;;24.40;69.25
35248;BME280;21380;52.194;20.520;2023-08-24T10:48:25;100656.41;;;24.36;69.26
35248;BME280;21380;52.194;20.520;2023-08-24T10:53:46;100642.41;;;24.31;69.25
35248;BME280;21380;52.194;20.520;2023-08-24T10:56:17;100660.75;;;24.42;69.28
35248;BME280;21380;52.194;20.520;2023-08-24T10:58:44;100654.59;;;24.41;69.29
35248;BME280;21380;52.194;20.520;2023-08-24T11:01:15;100656.31;;;24.42;69.31
35248;BME280;21380;52.194;20.520;2023-08-24T11:03:42;100649.34;;;24.38;69.17
35248;BME280;21380;52.194;20.520;2023-08-24T11:06:26;100653.69;;;24.42;69.09
35248;BME280;21380;52.194;20.520;2023-08-24T11:09:11;100651.06;;;24.42;69.35
35248;BME280;21380;52.194;20.520;2023-08-24T11:11:41;100658.06;;;24.43;69.25
35248;BME280;21380;52.194;20.520;2023-08-24T11:14:20;100656.31;;;24.44;69.05
35248;BME280;21380;52.194;20.520;2023-08-24T11:16:52;100645.78;;;24.42;69.17
35248;BME280;21380;52.194;20.520;2023-08-24T11:19:21;100631.81;;;24.36;69.28
35248;BME280;21380;52.194;20.520;2023-08-24T11:21:47;100629.19;;;24.36;69.28
35248;BME280;21380;52.194;20.520;2023-08-24T11:24:13;100637.91;;;24.39;69.17
35248;BME280;21380;52.194;20.520;2023-08-24T11:26:43;100627.41;;;24.36;69.23
35248;BME280;21380;52.194;20.520;2023-08-24T11:29:10;100638.72;;;24.44;69.15
35248;BME280;21380;52.194;20.520;2023-08-24T11:31:37;100635.22;;;24.42;69.06
35248;BME280;21380;52.194;20.520;2023-08-24T11:34:03;100634.44;;;24.39;69.15
35248;BME280;21380;52.194;20.520;2023-08-24T11:36:31;100616.06;;;24.31;69.14
35248;BME280;21380;52.194;20.520;2023-08-24T11:38:58;100637.84;;;24.45;69.30
35248;BME280;21380;52.194;20.520;2023-08-24T11:41:26;100622.09;;;24.39;69.33
35248;BME280;21380;52.194;20.520;2023-08-24T11:43:59;100615.94;;;24.40;69.49
35248;BME280;21380;52.194;20.520;2023-08-24T11:46:28;100617.69;;;24.41;69.37
35248;BME280;21380;52.194;20.520;2023-08-24T11:48:54;100611.56;;;24.39;69.29
35248;BME280;21380;52.194;20.520;2023-08-24T11:51:20;100614.13;;;24.42;69.26
35248;BME280;21380;52.194;20.520;2023-08-24T11:53:46;100626.41;;;24.45;69.59
35248;BME280;21380;52.194;20.520;2023-08-24T11:56:13;100622.88;;;24.46;69.83
35248;BME280;21380;52.194;20.520;2023-08-24T11:58:45;100611.50;;;24.42;69.65
35248;BME280;21380;52.194;20.520;2023-08-24T12:01:13;100615.88;;;24.47;69.83
35248;BME280;21380;52.194;20.520;2023-08-24T12:03:39;100595.81;;;24.33;69.48
35248;BME280;21380;52.194;20.520;2023-08-24T12:06:16;100609.69;;;24.48;69.67
35248;BME280;21380;52.194;20.520;2023-08-24T12:08:46;100602.69;;;24.47;69.54
35248;BME280;21380;52.194;20.520;2023-08-24T12:11:17;100601.78;;;24.48;69.48
35248;BME280;21380;52.194;20.520;2023-08-24T12:13:48;100600.97;;;24.44;69.57
35248;BME280;21380;52.194;20.520;2023-08-24T12:16:18;100604.41;;;24.49;69.58
35248;BME280;21380;52.194;20.520;2023-08-24T12:18:57;100602.63;;;24.50;69.62
35248;BME280;21380;52.194;20.520;2023-08-24T12:21:26;100595.59;;;24.49;69.49
35248;BME280;21380;52.194;20.520;2023-08-24T12:24:05;100576.38;;;24.42;69.78
35248;BME280;21380;52.194;20.520;2023-08-24T12:26:32;100584.25;;;24.43;69.62
35248;BME280;21380;52.194;20.520;2023-08-24T12:29:03;100595.66;;;24.45;69.50
35248;BME280;21380;52.194;20.520;2023-08-24T12:31:31;100591.25;;;24.48;69.63
35248;BME280;21380;52.194;20.520;2023-08-24T12:33:59;100595.59;;;24.49;69.55
35248;BME280;21380;52.194;20.520;2023-08-24T12:36:26;100580.78;;;24.41;69.46
35248;BME280;21380;52.194;20.520;2023-08-24T12:38:52;100592.13;;;24.45;69.50
35248;BME280;21380;52.194;20.520;2023-08-24T12:41:18;100598.22;;;24.49;69.48
35248;BME280;21380;52.194;20.520;2023-08-24T12:43:44;100603.47;;;24.52;69.48
35248;BME280;21380;52.194;20.520;2023-08-24T12:46:10;100598.22;;;24.49;69.44
35248;BME280;21380;52.194;20.520;2023-08-24T12:48:36;100577.28;;;24.39;69.74
35248;BME280;21380;52.194;20.520;2023-08-24T12:51:02;100602.59;;;24.51;69.47
35248;BME280;21380;52.194;20.520;2023-08-24T12:53:28;100592.06;;;24.50;69.47
35248;BME280;21380;52.194;20.520;2023-08-24T12:55:54;100596.44;;;24.51;69.36